createdAt,value
2023-03-12T00:00:14.460Z,-1.13
2023-03-12T00:02:41.204Z,-1.12
2023-03-12T00:05:08.520Z,-1.10
2023-03-12T00:07:36.895Z,-1.09
2023-03-12T00:10:05.667Z,-1.07
2023-03-12T00:12:32.691Z,-1.04
2023-03-12T00:14:59.591Z,-1.01
2023-03-12T00:17:26.431Z,-0.99
2023-03-12T00:19:54.015Z,-0.98
2023-03-12T00:22:23.110Z,-0.98
2023-03-12T00:24:52.455Z,-0.97
2023-03-12T00:27:20.319Z,-0.94
2023-03-12T00:29:47.112Z,-0.90
2023-03-12T00:32:14.431Z,-0.88
2023-03-12T00:34:41.296Z,-0.88
2023-03-12T00:37:08.752Z,-0.88
2023-03-12T00:39:35.829Z,-0.91
2023-03-12T00:42:02.816Z,-0.91
2023-03-12T00:44:29.581Z,-0.94
2023-03-12T00:46:56.339Z,-0.97
2023-03-12T00:49:23.159Z,-0.97
2023-03-12T00:51:50.039Z,-0.95
2023-03-12T00:54:16.874Z,-0.96
2023-03-12T00:56:43.829Z,-0.95
2023-03-12T00:59:10.620Z,-0.94
2023-03-12T01:01:37.402Z,-0.94
2023-03-12T01:04:04.568Z,-0.92
2023-03-12T01:06:31.624Z,-0.92
2023-03-12T01:08:58.695Z,-0.92
2023-03-12T01:11:25.517Z,-0.90
2023-03-12T01:13:52.345Z,-0.86
2023-03-12T01:16:19.152Z,-0.80
2023-03-12T01:18:46.200Z,-0.74
2023-03-12T01:21:13.065Z,-0.72
2023-03-12T01:23:39.845Z,-0.69
2023-03-12T01:26:06.585Z,-0.68
2023-03-12T01:28:33.300Z,-0.67
2023-03-12T01:31:12.539Z,-0.70
2023-03-12T01:33:40.273Z,-0.74
2023-03-12T01:36:18.531Z,-0.74
2023-03-12T01:38:45.713Z,-0.71
2023-03-12T01:41:13.141Z,-0.68
2023-03-12T01:43:40.549Z,-0.64
2023-03-12T01:46:38.741Z,-0.63
2023-03-12T01:49:27.450Z,-0.66
2023-03-12T01:52:12.968Z,-0.68
2023-03-12T01:54:52.293Z,-0.71
2023-03-12T01:57:27.041Z,-0.71
2023-03-12T01:59:59.964Z,-0.71
2023-03-12T02:02:28.845Z,-0.71
2023-03-12T02:05:08.920Z,-0.69
2023-03-12T02:07:36.137Z,-0.67
2023-03-12T02:10:04.778Z,-0.70
2023-03-12T02:12:32.574Z,-0.73
2023-03-12T02:14:59.446Z,-0.77
2023-03-12T02:17:26.378Z,-0.81
2023-03-12T02:19:55.466Z,-0.85
2023-03-12T02:22:23.119Z,-0.89
2023-03-12T02:24:57.553Z,-0.91
2023-03-12T02:27:24.956Z,-0.89
2023-03-12T02:29:52.151Z,-0.86
2023-03-12T02:32:26.841Z,-0.88
2023-03-12T02:34:53.958Z,-0.92
2023-03-12T02:37:20.747Z,-0.98
2023-03-12T02:39:57.659Z,-1.13
2023-03-12T02:42:25.076Z,-1.23
2023-03-12T02:44:52.591Z,-1.29
2023-03-12T02:47:19.450Z,-1.33
2023-03-12T02:49:46.639Z,-1.36
2023-03-12T02:52:13.450Z,-1.42
2023-03-12T02:54:40.371Z,-1.46
2023-03-12T02:57:07.131Z,-1.53
2023-03-12T02:59:34.525Z,-1.59
2023-03-12T03:02:02.235Z,-1.62
2023-03-12T03:04:31.084Z,-1.62
2023-03-12T03:06:58.035Z,-1.63
2023-03-12T03:09:25.340Z,-1.63
2023-03-12T03:11:52.897Z,-1.64
2023-03-12T03:14:20.060Z,-1.66
2023-03-12T03:16:48.349Z,-1.71
2023-03-12T03:19:15.169Z,-1.74
2023-03-12T03:21:41.972Z,-1.76
2023-03-12T03:24:08.781Z,-1.76
2023-03-12T03:26:35.822Z,-1.75
2023-03-12T03:29:03.092Z,-1.74
2023-03-12T03:31:30.083Z,-1.77
2023-03-12T03:33:57.293Z,-1.81
2023-03-12T03:36:24.099Z,-1.87
2023-03-12T03:38:59.654Z,-1.92
2023-03-12T03:41:27.076Z,-1.97
2023-03-12T03:43:58.556Z,-1.99
2023-03-12T03:46:26.803Z,-2.01
2023-03-12T03:48:58.898Z,-2.04
2023-03-12T03:51:26.955Z,-2.07
2023-03-12T03:53:56.348Z,-2.12
2023-03-12T03:56:23.276Z,-2.17
2023-03-12T03:58:50.232Z,-2.21
2023-03-12T04:01:18.426Z,-2.23
2023-03-12T04:03:45.755Z,-2.24
2023-03-12T04:06:13.104Z,-2.26
2023-03-12T04:08:40.971Z,-2.28
2023-03-12T04:11:14.944Z,-2.31
2023-03-12T04:13:41.968Z,-2.36
2023-03-12T04:16:10.310Z,-2.42
2023-03-12T04:18:37.711Z,-2.45
2023-03-12T04:21:07.308Z,-2.49
2023-03-12T04:23:34.673Z,-2.50
2023-03-12T04:26:01.691Z,-2.51
2023-03-12T04:28:28.975Z,-2.49
2023-03-12T04:31:01.728Z,-2.49
2023-03-12T04:33:39.799Z,-2.49
2023-03-12T04:36:08.027Z,-2.51
2023-03-12T04:38:36.068Z,-2.54
2023-03-12T04:41:08.086Z,-2.56
2023-03-12T04:43:37.137Z,-2.57
2023-03-12T04:46:05.275Z,-2.56
2023-03-12T04:48:34.208Z,-2.52
2023-03-12T04:51:03.267Z,-2.47
2023-03-12T04:53:30.264Z,-2.44
2023-03-12T04:55:57.807Z,-2.43
2023-03-12T04:58:24.634Z,-2.43
2023-03-12T05:00:51.874Z,-2.43
2023-03-12T05:03:19.186Z,-2.45
2023-03-12T05:05:46.147Z,-2.48
2023-03-12T05:08:13.444Z,-2.49
2023-03-12T05:10:45.235Z,-2.49
2023-03-12T05:13:22.750Z,-2.47
2023-03-12T05:15:52.240Z,-2.44
2023-03-12T05:18:21.531Z,-2.41
2023-03-12T05:20:59.585Z,-2.40
2023-03-12T05:23:26.572Z,-2.39
2023-03-12T05:25:53.921Z,-2.39
2023-03-12T05:28:21.711Z,-2.39
2023-03-12T05:30:48.749Z,-2.37
2023-03-12T05:33:15.706Z,-2.31
2023-03-12T05:35:42.566Z,-2.22
2023-03-12T05:38:09.374Z,-2.14
2023-03-12T05:40:36.213Z,-2.07
2023-03-12T05:43:03.466Z,-2.02
2023-03-12T05:45:30.581Z,-1.97
2023-03-12T05:47:58.916Z,-1.94
2023-03-12T05:50:27.720Z,-1.91
2023-03-12T05:52:54.912Z,-1.86
2023-03-12T05:55:21.766Z,-1.79
2023-03-12T05:57:48.772Z,-1.74
2023-03-12T06:00:16.465Z,-1.68
2023-03-12T06:02:48.521Z,-1.63
2023-03-12T06:05:15.544Z,-1.60
2023-03-12T06:07:42.499Z,-1.53
2023-03-12T06:10:10.141Z,-1.46
2023-03-12T06:12:37.336Z,-1.38
2023-03-12T06:15:05.452Z,-1.29
2023-03-12T06:17:32.487Z,-1.22
2023-03-12T06:19:59.721Z,-1.16
2023-03-12T06:22:27.712Z,-1.09
2023-03-12T06:24:55.206Z,-1.03
2023-03-12T06:27:23.902Z,-0.99
2023-03-12T06:29:51.590Z,-0.93
2023-03-12T06:32:18.623Z,-0.85
2023-03-12T06:34:45.628Z,-0.76
2023-03-12T06:37:12.403Z,-0.71
2023-03-12T06:39:39.286Z,-0.65
2023-03-12T06:42:06.193Z,-0.62
2023-03-12T06:44:33.321Z,-0.59
2023-03-12T06:47:00.143Z,-0.55
2023-03-12T06:49:27.509Z,-0.52
2023-03-12T06:51:56.052Z,-0.47
2023-03-12T06:54:22.841Z,-0.35
2023-03-12T06:56:49.620Z,-0.20
2023-03-12T06:59:16.384Z,-0.06
2023-03-12T07:01:43.396Z,0.12
2023-03-12T07:04:10.196Z,0.25
2023-03-12T07:06:36.955Z,0.41
2023-03-12T07:09:05.107Z,0.46
2023-03-12T07:11:32.011Z,0.47
2023-03-12T07:13:58.886Z,0.54
2023-03-12T07:16:25.687Z,0.61
2023-03-12T07:18:52.499Z,0.65
2023-03-12T07:21:24.014Z,0.70
2023-03-12T07:23:51.583Z,0.85
2023-03-12T07:26:19.045Z,1.43
2023-03-12T07:28:46.151Z,2.17
2023-03-12T07:31:13.064Z,2.87
2023-03-12T07:33:40.013Z,3.05
2023-03-12T07:36:07.601Z,2.97
2023-03-12T07:38:34.402Z,2.85
2023-03-12T07:41:01.353Z,2.65
2023-03-12T07:43:28.254Z,2.46
2023-03-12T07:45:55.501Z,2.40
2023-03-12T07:48:22.411Z,2.64
2023-03-12T07:50:49.231Z,3.28
2023-03-12T07:53:17.037Z,3.71
2023-03-12T07:55:46.479Z,3.97
2023-03-12T07:58:15.671Z,4.51
2023-03-12T08:00:42.675Z,5.10
2023-03-12T08:03:09.657Z,5.69
2023-03-12T08:05:36.861Z,6.20
2023-03-12T08:08:04.113Z,6.73
2023-03-12T08:10:31.187Z,7.12
2023-03-12T08:12:58.105Z,7.40
2023-03-12T08:15:25.418Z,7.68
2023-03-12T08:17:52.287Z,7.85
2023-03-12T08:20:19.114Z,8.20
2023-03-12T08:22:45.835Z,8.59
2023-03-12T08:25:13.302Z,8.89
2023-03-12T08:27:40.096Z,8.89
2023-03-12T08:30:08.096Z,9.05
2023-03-12T08:32:36.230Z,9.34
2023-03-12T08:35:05.384Z,9.36
2023-03-12T08:37:33.010Z,9.47
2023-03-12T08:40:00.279Z,9.56
2023-03-12T08:42:27.173Z,9.73
2023-03-12T08:44:54.006Z,9.78
2023-03-12T08:47:20.785Z,9.73
2023-03-12T08:49:47.731Z,9.70
2023-03-12T08:52:14.515Z,9.70
2023-03-12T08:54:41.364Z,9.77
2023-03-12T08:57:08.315Z,9.97
2023-03-12T08:59:35.201Z,9.97
2023-03-12T09:02:01.950Z,9.89
2023-03-12T09:04:28.909Z,9.58
2023-03-12T09:06:55.790Z,9.32
2023-03-12T09:09:22.654Z,9.20
2023-03-12T09:11:49.448Z,9.34
2023-03-12T09:15:16.475Z,9.50
2023-03-12T09:17:03.393Z,9.40
2023-03-12T09:19:30.164Z,9.17
2023-03-12T09:21:57.757Z,8.95
2023-03-12T09:24:24.717Z,8.88
2023-03-12T09:26:51.484Z,9.03
2023-03-12T09:29:18.285Z,9.21
2023-03-12T09:31:45.018Z,9.25
2023-03-12T09:34:11.840Z,9.19
2023-03-12T09:36:38.751Z,9.12
2023-03-12T09:39:05.998Z,9.09
2023-03-12T09:41:37.847Z,8.92
2023-03-12T09:44:10.285Z,8.65
2023-03-12T09:46:45.266Z,8.59
2023-03-12T09:49:19.524Z,8.47
2023-03-12T09:51:51.740Z,8.18
2023-03-12T09:54:39.593Z,8.04
2023-03-12T09:57:13.093Z,7.76
2023-03-12T09:59:39.917Z,7.57
2023-03-12T10:02:29.227Z,7.44
2023-03-12T10:05:02.015Z,7.49
2023-03-12T10:07:45.532Z,7.49
2023-03-12T10:10:27.806Z,7.28
2023-03-12T10:12:54.553Z,6.89
2023-03-12T10:15:36.982Z,6.58
2023-03-12T10:18:08.214Z,6.70
2023-03-12T10:20:53.893Z,6.99
2023-03-12T10:23:33.029Z,7.22
2023-03-12T10:26:14.813Z,7.40
2023-03-12T10:28:44.201Z,7.46
2023-03-12T10:31:21.750Z,7.43
2023-03-12T10:33:54.464Z,7.34
2023-03-12T10:36:26.309Z,7.27
2023-03-12T10:38:53.049Z,7.12
2023-03-12T10:41:24.098Z,6.88
2023-03-12T10:43:51.343Z,6.78
2023-03-12T10:46:34.703Z,6.84
2023-03-12T10:49:25.948Z,6.99
2023-03-12T10:51:55.502Z,7.01
2023-03-12T10:54:30.742Z,7.02
2023-03-12T10:56:57.708Z,7.09
2023-03-12T10:59:29.562Z,7.21
2023-03-12T11:01:57.124Z,7.32
2023-03-12T11:04:30.283Z,7.38
2023-03-12T11:07:12.478Z,7.29
2023-03-12T11:09:39.354Z,7.16
2023-03-12T11:12:24.486Z,7.33
2023-03-12T11:14:51.449Z,7.57
2023-03-12T11:17:22.746Z,7.66
2023-03-12T11:19:49.517Z,7.53
2023-03-12T11:22:29.926Z,7.37
2023-03-12T11:24:59.716Z,7.22
2023-03-12T11:27:38.081Z,7.01
2023-03-12T11:30:07.460Z,6.87
2023-03-12T11:32:45.914Z,6.92
2023-03-12T11:35:16.069Z,7.00
2023-03-12T11:37:59.183Z,7.01
2023-03-12T11:40:46.121Z,6.82
2023-03-12T11:43:43.896Z,6.70
2023-03-12T11:46:22.941Z,6.89
2023-03-12T11:49:02.292Z,7.59
2023-03-12T11:51:33.548Z,8.09
2023-03-12T11:54:15.820Z,8.15
2023-03-12T11:56:51.683Z,7.84
2023-03-12T11:59:41.514Z,7.92
2023-03-12T12:02:38.968Z,8.14
2023-03-12T12:05:29.439Z,8.54
2023-03-12T12:08:16.111Z,8.98
2023-03-12T12:10:46.359Z,9.21
2023-03-12T12:13:18.079Z,9.31
2023-03-12T12:15:53.022Z,9.35
2023-03-12T12:18:38.193Z,9.48
2023-03-12T12:21:27.680Z,9.48
2023-03-12T12:24:10.300Z,9.50
2023-03-12T12:26:56.078Z,9.63
2023-03-12T12:29:45.757Z,9.88
2023-03-12T12:32:19.449Z,9.87
2023-03-12T12:35:01.677Z,9.81
2023-03-12T12:37:46.149Z,9.95
2023-03-12T12:40:31.430Z,9.61
2023-03-12T12:43:07.568Z,9.02
2023-03-12T12:45:40.524Z,8.88
2023-03-12T12:48:17.911Z,8.89
2023-03-12T12:50:48.090Z,9.40
2023-03-12T12:53:23.180Z,10.23
2023-03-12T12:56:00.887Z,10.74
2023-03-12T12:58:31.034Z,10.58
2023-03-12T13:01:00.798Z,10.26
2023-03-12T13:03:29.449Z,9.77
2023-03-12T13:05:59.021Z,9.41
2023-03-12T13:08:43.183Z,9.07
2023-03-12T13:11:18.697Z,8.74
2023-03-12T13:13:51.653Z,8.78
2023-03-12T13:16:35.014Z,9.07
2023-03-12T13:19:16.442Z,9.30
2023-03-12T13:21:54.388Z,9.12
2023-03-12T13:24:29.918Z,8.98
2023-03-12T13:27:15.211Z,8.95
2023-03-12T13:29:42.843Z,8.84
2023-03-12T13:32:37.249Z,8.82
2023-03-12T13:35:11.875Z,8.80
2023-03-12T13:37:54.071Z,8.83
2023-03-12T13:40:34.229Z,8.71
2023-03-12T13:43:11.699Z,8.42
2023-03-12T13:45:57.566Z,8.28
2023-03-12T13:48:25.037Z,8.49
2023-03-12T13:50:58.026Z,8.66
2023-03-12T13:53:35.767Z,8.66
2023-03-12T13:56:22.201Z,8.48
2023-03-12T13:59:05.644Z,8.45
2023-03-12T14:01:40.706Z,8.44
2023-03-12T14:04:20.665Z,8.54
2023-03-12T14:07:09.991Z,8.63
2023-03-12T14:09:50.020Z,8.51
2023-03-12T14:12:25.601Z,8.40
2023-03-12T14:15:08.979Z,8.20
2023-03-12T14:17:38.248Z,7.94
2023-03-12T14:20:13.927Z,7.82
2023-03-12T14:22:45.005Z,7.70
2023-03-12T14:25:26.270Z,7.73
2023-03-12T14:27:53.634Z,7.79
2023-03-12T14:30:20.593Z,7.68
2023-03-12T14:32:49.930Z,7.58
2023-03-12T14:35:22.216Z,7.45
2023-03-12T14:38:07.295Z,7.30
2023-03-12T14:40:38.814Z,7.13
2023-03-12T14:43:23.455Z,6.97
2023-03-12T14:45:52.373Z,6.85
2023-03-12T14:48:23.928Z,6.80
2023-03-12T14:50:50.898Z,6.73
2023-03-12T14:53:29.909Z,6.66
2023-03-12T14:56:13.758Z,6.53
2023-03-12T14:58:47.344Z,6.45
2023-03-12T15:01:19.355Z,6.39
2023-03-12T15:03:51.295Z,6.35
2023-03-12T15:06:25.653Z,6.35
2023-03-12T15:08:52.741Z,6.35
2023-03-12T15:11:24.358Z,6.32
2023-03-12T15:13:53.540Z,6.28
2023-03-12T15:16:22.043Z,6.20
2023-03-12T15:18:50.437Z,6.09
2023-03-12T15:21:18.105Z,6.01
2023-03-12T15:23:47.738Z,5.96
2023-03-12T15:26:22.002Z,5.88
2023-03-12T15:28:59.236Z,5.77
2023-03-12T15:31:26.563Z,5.65
2023-03-12T15:34:03.980Z,5.55
2023-03-12T15:36:33.573Z,5.46
2023-03-12T15:39:05.800Z,5.37
2023-03-12T15:41:43.538Z,5.27
2023-03-12T15:44:19.960Z,5.21
2023-03-12T15:46:49.400Z,5.19
2023-03-12T15:49:25.375Z,5.16
2023-03-12T15:51:59.887Z,5.16
2023-03-12T15:54:29.445Z,5.13
2023-03-12T15:57:18.182Z,5.08
2023-03-12T15:59:45.002Z,5.04
2023-03-12T16:02:13.140Z,4.99
2023-03-12T16:04:40.132Z,4.93
2023-03-12T16:07:12.194Z,4.85
2023-03-12T16:09:39.039Z,4.80
2023-03-12T16:12:06.177Z,4.73
2023-03-12T16:14:37.101Z,4.67
2023-03-12T16:17:03.902Z,4.60
2023-03-12T16:19:33.979Z,4.50
2023-03-12T16:22:00.946Z,4.44
2023-03-12T16:24:27.724Z,4.38
2023-03-12T16:26:58.301Z,4.33
2023-03-12T16:29:38.557Z,4.27
2023-03-12T16:32:15.899Z,4.22
2023-03-12T16:34:44.964Z,4.16
2023-03-12T16:37:13.020Z,4.10
2023-03-12T16:39:40.229Z,4.08
2023-03-12T16:42:15.798Z,4.05
2023-03-12T16:44:46.048Z,3.98
2023-03-12T16:47:14.501Z,3.91
2023-03-12T16:49:41.583Z,3.89
2023-03-12T16:52:19.051Z,3.89
2023-03-12T16:54:45.971Z,3.86
2023-03-12T16:57:19.505Z,3.82
2023-03-12T16:59:46.360Z,3.80
2023-03-12T17:02:16.770Z,3.78
2023-03-12T17:04:43.697Z,3.76
2023-03-12T17:07:10.682Z,3.75
2023-03-12T17:09:37.708Z,3.73
2023-03-12T17:12:04.621Z,3.70
2023-03-12T17:14:31.813Z,3.69
2023-03-12T17:16:58.601Z,3.68
2023-03-12T17:19:25.404Z,3.66
2023-03-12T17:21:52.660Z,3.65
2023-03-12T17:24:19.563Z,3.62
2023-03-12T17:26:46.591Z,3.60
2023-03-12T17:29:15.702Z,3.58
2023-03-12T17:31:42.536Z,3.55
2023-03-12T17:34:09.746Z,3.51
2023-03-12T17:36:38.018Z,3.48
2023-03-12T17:39:05.129Z,3.44
2023-03-12T17:41:33.292Z,3.41
2023-03-12T17:44:02.200Z,3.38
2023-03-12T17:46:30.787Z,3.35
2023-03-12T17:48:57.652Z,3.33
2023-03-12T17:51:24.813Z,3.30
2023-03-12T17:53:51.581Z,3.30
2023-03-12T17:56:18.528Z,3.31
2023-03-12T17:58:45.691Z,3.31
2023-03-12T18:01:13.618Z,3.32
2023-03-12T18:03:40.813Z,3.33
2023-03-12T18:06:07.629Z,3.34
2023-03-12T18:08:34.420Z,3.34
2023-03-12T18:11:03.034Z,3.34
2023-03-12T18:13:30.751Z,3.33
2023-03-12T18:15:58.980Z,3.31
2023-03-12T18:18:26.786Z,3.29
2023-03-12T18:20:54.362Z,3.26
2023-03-12T18:23:21.241Z,3.25
2023-03-12T18:25:47.976Z,3.24
2023-03-12T18:28:15.412Z,3.23
2023-03-12T18:30:44.972Z,3.22
2023-03-12T18:33:11.818Z,3.22
2023-03-12T18:35:38.718Z,3.20
2023-03-12T18:38:05.806Z,3.19
2023-03-12T18:40:33.216Z,3.18
2023-03-12T18:43:00.672Z,3.16
2023-03-12T18:45:28.078Z,3.14
2023-03-12T18:47:54.977Z,3.12
2023-03-12T18:50:22.536Z,3.09
2023-03-12T18:52:49.324Z,3.07
2023-03-12T18:55:16.315Z,3.05
2023-03-12T18:57:44.671Z,3.01
2023-03-12T19:00:14.682Z,2.98
2023-03-12T19:02:57.634Z,2.92
2023-03-12T19:05:24.408Z,2.85
2023-03-12T19:07:51.521Z,2.80
2023-03-12T19:10:18.510Z,2.75
2023-03-12T19:12:52.670Z,2.70
2023-03-12T19:15:21.884Z,2.67
2023-03-12T19:17:48.699Z,2.63
2023-03-12T19:20:15.870Z,2.60
2023-03-12T19:22:42.669Z,2.57
2023-03-12T19:25:09.646Z,2.54
2023-03-12T19:27:36.423Z,2.52
2023-03-12T19:30:04.110Z,2.50
2023-03-12T19:32:42.269Z,2.47
2023-03-12T19:35:11.333Z,2.45
2023-03-12T19:37:38.176Z,2.41
2023-03-12T19:40:05.942Z,2.40
2023-03-12T19:42:32.818Z,2.37
2023-03-12T19:44:59.701Z,2.34
2023-03-12T19:47:26.846Z,2.35
2023-03-12T19:49:53.985Z,2.35
2023-03-12T19:52:20.782Z,2.35
2023-03-12T19:55:01.459Z,2.36
2023-03-12T19:57:31.702Z,2.37
2023-03-12T19:59:58.576Z,2.37
2023-03-12T20:02:26.363Z,2.37
2023-03-12T20:04:53.299Z,2.36
2023-03-12T20:07:20.027Z,2.37
2023-03-12T20:09:46.865Z,2.36
2023-03-12T20:12:13.700Z,2.35
2023-03-12T20:14:42.650Z,2.34
2023-03-12T20:17:11.554Z,2.34
2023-03-12T20:19:39.005Z,2.32
2023-03-12T20:22:06.981Z,2.30
2023-03-12T20:24:34.158Z,2.31
2023-03-12T20:27:01.673Z,2.30
2023-03-12T20:29:28.469Z,2.29
2023-03-12T20:31:55.330Z,2.29
2023-03-12T20:34:22.573Z,2.29
2023-03-12T20:36:51.833Z,2.29
2023-03-12T20:39:18.622Z,2.28
2023-03-12T20:41:45.364Z,2.28
2023-03-12T20:44:12.221Z,2.28
2023-03-12T20:46:38.989Z,2.29
2023-03-12T20:49:05.938Z,2.30
2023-03-12T20:51:32.700Z,2.31
2023-03-12T20:53:59.445Z,2.31
2023-03-12T20:56:26.326Z,2.34
2023-03-12T20:58:53.993Z,2.35
2023-03-12T21:01:20.892Z,2.37
2023-03-12T21:03:47.842Z,2.38
2023-03-12T21:06:14.661Z,2.40
2023-03-12T21:08:41.374Z,2.41
2023-03-12T21:11:08.809Z,2.42
2023-03-12T21:13:36.399Z,2.44
2023-03-12T21:16:05.653Z,2.45
2023-03-12T21:18:32.610Z,2.45
2023-03-12T21:21:04.677Z,2.45
2023-03-12T21:23:32.467Z,2.44
2023-03-12T21:26:01.982Z,2.44
2023-03-12T21:28:29.325Z,2.44
2023-03-12T21:30:56.368Z,2.43
2023-03-12T21:33:23.174Z,2.45
2023-03-12T21:35:51.988Z,2.46
2023-03-12T21:38:19.458Z,2.48
2023-03-12T21:40:47.316Z,2.49
2023-03-12T21:43:14.053Z,2.51
2023-03-12T21:45:42.698Z,2.54
2023-03-12T21:48:09.643Z,2.56
2023-03-12T21:50:36.387Z,2.57
2023-03-12T21:53:06.894Z,2.58
2023-03-12T21:55:41.268Z,2.60
2023-03-12T21:58:08.316Z,2.61
2023-03-12T22:00:35.117Z,2.61
2023-03-12T22:03:01.948Z,2.64
2023-03-12T22:05:28.710Z,2.66
2023-03-12T22:07:55.501Z,2.68
2023-03-12T22:10:22.327Z,2.71
2023-03-12T22:12:49.121Z,2.74
2023-03-12T22:15:16.029Z,2.77
2023-03-12T22:17:42.942Z,2.80
2023-03-12T22:20:10.661Z,2.83
2023-03-12T22:22:37.497Z,2.86
2023-03-12T22:25:04.640Z,2.88
2023-03-12T22:27:31.390Z,2.90
2023-03-12T22:29:58.132Z,2.93
2023-03-12T22:32:25.859Z,2.95
2023-03-12T22:34:52.647Z,2.99
2023-03-12T22:37:19.402Z,3.02
2023-03-12T22:39:46.200Z,3.05
2023-03-12T22:42:12.966Z,3.09
2023-03-12T22:44:41.475Z,3.14
2023-03-12T22:47:08.696Z,3.21
2023-03-12T22:49:35.819Z,3.27
2023-03-12T22:52:02.627Z,3.37
2023-03-12T22:54:29.385Z,3.46
2023-03-12T22:56:56.100Z,3.53
2023-03-12T22:59:22.867Z,3.59
2023-03-12T23:01:49.689Z,3.63
2023-03-12T23:04:16.586Z,3.67
2023-03-12T23:06:44.218Z,3.71
2023-03-12T23:09:11.233Z,3.75
2023-03-12T23:11:38.954Z,3.79
2023-03-12T23:14:05.775Z,3.83
2023-03-12T23:16:32.627Z,3.86
2023-03-12T23:19:00.396Z,3.88
2023-03-12T23:21:27.239Z,3.91
2023-03-12T23:23:54.305Z,3.96
2023-03-12T23:26:24.052Z,4.00
2023-03-12T23:28:53.368Z,4.06
2023-03-12T23:31:21.357Z,4.11
2023-03-12T23:33:48.212Z,4.19
2023-03-12T23:36:18.891Z,4.25
2023-03-12T23:38:47.068Z,4.32
2023-03-12T23:41:16.854Z,4.39
2023-03-12T23:43:44.204Z,4.46
2023-03-12T23:46:12.133Z,4.53
2023-03-12T23:48:40.100Z,4.61
2023-03-12T23:51:09.889Z,4.67
2023-03-12T23:53:37.778Z,4.74
2023-03-12T23:56:08.112Z,4.80
2023-03-12T23:58:35.952Z,4.84
